Ship Status Report: callsign NRPK

sailwx.info

Track history (hours):
 
Tides and Currents Weather Stations Pressure Air Temp Water Temp Dewpoint Dewpoint Depression Visibility Wind Speed Wind Dir Waves Ship Positions

Callsign NRPK (name unknown)

Last reported at 2014-Jul-12 11:30 UTC. Time now 2014-Jul-25 03:46 UTC.
Position N 35°48' W 075°20'.
Warning: this ship's position is 12 days out of date.

AWS

Date/timePositionNaut miles runAvg speedWind from/ knotsBaromVisibWave heightAir tempDewpointWater temp
2014-Jul-12 11:30N 35°48' W 075°20'6214.5
2014-Jul-12 07:13N 36°47' W 075°44'1015.3
2014-Jul-12 06:33N 36°53' W 075°54'1812.4
2014-Jul-12 05:05N 37°00' W 076°14'610.9
2014-Jul-12 04:33N 36°58' W 076°21'3 2.6
2014-Jul-12 03:18N 36°57' W 076°25'0 0.6
2014-Jul-12 02:33N 36°57' W 076°25'3 2.2
2014-Jul-12 01:17N 36°59' W 076°27'8 6.9
2014-Jul-12 00:06N 36°53' W 076°21'0 0.1
2014-Jul-11 21:04N 36°53' W 076°21'0 0.0
2014-Jul-11 17:28N 36°53' W 076°21'0 0.0
2014-Jul-11 15:10N 36°53' W 076°21'0 0.0
2014-Jul-11 14:31N 36°53' W 076°21'0 0.0
2014-Jul-11 12:19N 36°53' W 076°21'0 0.0
2014-Jul-11 11:28N 36°53' W 076°21'0 0.0
2014-Jul-11 10:22N 36°53' W 076°21'0 0.0
2014-Jul-11 06:05N 36°53' W 076°21'0 0.0
2014-Jul-11 05:22N 36°53' W 076°21'0 0.0
2014-Jul-11 04:31N 36°53' W 076°21'0 0.0
2014-Jul-11 01:31N 36°53' W 076°21'0 0.0
2014-Jul-11 00:07N 36°53' W 076°21'0 0.0
2014-Jul-10 19:32N 36°53' W 076°21'0 0.0
2014-Jul-10 06:22N 36°53' W 076°21'0 0.0
2014-Jul-10 05:10N 36°53' W 076°21'0 0.0
2014-Jul-10 01:26N 36°53' W 076°21'0 0.0
2014-Jul-09 23:23N 36°53' W 076°21'0 0.0
2014-Jul-09 22:25N 36°53' W 076°21'0 0.2
2014-Jul-09 20:33N 36°53' W 076°21'10 9.6
2014-Jul-09 19:33N 37°00' W 076°13'1312.4
2014-Jul-09 18:32N 36°57' W 075°58'7 0.3
2014-Jul-08 17:19N 36°57' W 075°49'911.9
2014-Jul-08 16:33N 36°59' W 075°60'1 0.8
2014-Jul-08 15:33N 36°59' W 076°00'0 0.0
2014-Jul-08 14:33N 36°59' W 076°00'2 1.6
2014-Jul-08 13:33N 36°58' W 075°59'0 0.0
2014-Jul-08 12:32N 36°58' W 075°59'5 4.3
2014-Jul-08 11:17N 36°57' W 076°06'0 0.0
2014-Jul-08 04:17N 36°57' W 076°06'0 0.0
2014-Jul-07 22:03N 36°57' W 076°06'1 2.5
2014-Jul-07 21:33N 36°58' W 076°07'1110.7
2014-Jul-07 20:33N 36°58' W 076°20'5 3.7
2014-Jul-07 19:13N 36°53' W 076°21'0 0.0
2014-Jul-07 16:24N 36°53' W 076°21'0 0.0
2014-Jul-07 14:33N 36°53' W 076°21'0 0.0
2014-Jul-07 13:03N 36°53' W 076°21'0 0.0
2014-Jul-07 12:33N 36°53' W 076°21'0 0.0
2014-Jul-07 11:33N 36°53' W 076°21'0 0.0
2014-Jul-07 10:33N 36°53' W 076°21'0 0.0
2014-Jul-07 09:31N 36°53' W 076°21'0 0.0
2014-Jul-07 08:22N 36°53' W 076°21'0 0.0
2014-Jul-07 07:10N 36°53' W 076°21'0 0.0
2014-Jul-07 06:28N 36°53' W 076°21'0 0.0
2014-Jul-07 05:28N 36°53' W 076°21'0 0.0
2014-Jul-07 04:31N 36°53' W 076°21'0 0.0
2014-Jul-07 03:31N 36°53' W 076°21'0 0.0
2014-Jul-07 02:31N 36°53' W 076°21'0 0.0
2014-Jul-07 01:25N 36°53' W 076°21'0 0.0
2014-Jul-07 00:33N 36°53' W 076°21'0 0.0
2014-Jul-06 23:25N 36°53' W 076°21'0 0.0
2014-Jul-06 22:31N 36°53' W 076°21'0 0.0
2014-Jul-06 21:28N 36°53' W 076°21'0 0.0
2014-Jul-06 20:31N 36°53' W 076°21'0 0.0
2014-Jul-06 19:28N 36°53' W 076°21'0 0.0
2014-Jul-06 18:31N 36°53' W 076°21'0 0.0
2014-Jul-06 17:31N 36°53' W 076°21'0 0.0
2014-Jul-06 16:33N 36°53' W 076°21'0 0.0
2014-Jul-06 15:21N 36°53' W 076°21'0 0.0
2014-Jul-06 14:31N 36°53' W 076°21'0 0.0
2014-Jul-06 13:25N 36°53' W 076°21'0 0.0
2014-Jul-06 12:25N 36°53' W 076°21'0 0.0
2014-Jul-06 11:25N 36°53' W 076°21'0 0.0
2014-Jul-06 10:31N 36°53' W 076°21'0 0.0
2014-Jul-06 09:28N 36°53' W 076°21'0 0.0
2014-Jul-06 08:24N 36°53' W 076°21'0 0.0
2014-Jul-06 07:27N 36°53' W 076°21'0 0.0
2014-Jul-06 06:32N 36°53' W 076°21'0 0.0
2014-Jul-06 05:30N 36°53' W 076°21'0 0.0
2014-Jul-06 04:27N 36°53' W 076°21'0 0.0
2014-Jul-06 03:33N 36°53' W 076°21'0 0.0
2014-Jul-06 02:33N 36°53' W 076°21'0 0.0
2014-Jul-06 01:33N 36°53' W 076°21'0 0.0
2014-Jul-06 00:32N 36°53' W 076°21'0 0.0
2014-Jul-05 23:32N 36°53' W 076°21'0 0.0
2014-Jul-05 22:30N 36°53' W 076°21'0 0.0
2014-Jul-05 21:30N 36°53' W 076°21'0 0.0
2014-Jul-05 20:33N 36°53' W 076°21'0 0.0
2014-Jul-05 19:33N 36°53' W 076°21'0 0.0
2014-Jul-05 18:27N 36°53' W 076°21'0 0.0
2014-Jul-05 17:31N 36°53' W 076°21'0 0.0
2014-Jul-05 16:30N 36°53' W 076°21'0 0.0
2014-Jul-05 15:33N 36°53' W 076°21'0 0.0
2014-Jul-05 14:33N 36°53' W 076°21'0 0.0
2014-Jul-05 13:33N 36°53' W 076°21'0 0.0
2014-Jul-05 12:30N 36°53' W 076°21'0 0.0
2014-Jul-05 11:27N 36°53' W 076°21'0 0.0
2014-Jul-05 10:33N 36°53' W 076°21'0 0.0
2014-Jul-05 09:30N 36°53' W 076°21'0 0.0
2014-Jul-05 08:33N 36°53' W 076°21'0 0.0
2014-Jul-05 07:33N 36°53' W 076°21'0 0.0
2014-Jul-05 06:30N 36°53' W 076°21'0 0.0
2014-Jul-05 05:30N 36°53' W 076°21'0 0.0
2014-Jul-05 04:33N 36°53' W 076°21'0 0.0
2014-Jul-05 03:32N 36°53' W 076°21'0 0.0
2014-Jul-05 02:34N 36°53' W 076°21'0 0.0
2014-Jul-05 01:33N 36°53' W 076°21'0 0.0
2014-Jul-05 00:30N 36°53' W 076°21'0 0.0
2014-Jul-04 23:31N 36°53' W 076°21'0 0.0
2014-Jul-04 22:33N 36°53' W 076°21'0 0.0
2014-Jul-04 21:33N 36°53' W 076°21'0 0.0
2014-Jul-04 20:33N 36°53' W 076°21'0 0.0
2014-Jul-04 19:30N 36°53' W 076°21'0 0.0
2014-Jul-04 18:30N 36°53' W 076°21'0 0.0
2014-Jul-04 17:24N 36°53' W 076°21'0 0.0
2014-Jul-04 16:27N 36°53' W 076°21'0 0.0
2014-Jul-04 15:33N 36°53' W 076°21'0 0.0
2014-Jul-04 14:27N 36°53' W 076°21'0 0.0
2014-Jul-04 13:27N 36°53' W 076°21'0 0.0
2014-Jul-04 12:33N 36°53' W 076°21'0 0.0
2014-Jul-04 11:33N 36°53' W 076°21'0 0.0
2014-Jul-04 10:33N 36°53' W 076°21'0 0.0
2014-Jul-04 09:33N 36°53' W 076°21'0 0.0
2014-Jul-04 08:18N 36°53' W 076°21'0 0.0
2014-Jul-04 07:33N 36°53' W 076°21'0 0.0
2014-Jul-04 06:32N 36°53' W 076°21'0 0.0
2014-Jul-04 05:33N 36°53' W 076°21'0 0.0
2014-Jul-04 04:25N 36°53' W 076°21'0 0.0
2014-Jul-04 03:33N 36°53' W 076°21'0 0.0
2014-Jul-04 02:27N 36°53' W 076°21'0 0.0
2014-Jul-04 01:33N 36°53' W 076°21'0 0.0
2014-Jul-04 00:30N 36°53' W 076°21'0 0.0
2014-Jul-03 23:30N 36°53' W 076°21'0 0.0
2014-Jul-03 22:24N 36°53' W 076°21'0 0.0
2014-Jul-03 21:33N 36°53' W 076°21'0 0.0
2014-Jul-03 20:21N 36°53' W 076°21'0 0.0
2014-Jul-03 19:24N 36°53' W 076°21'0 0.0
2014-Jul-03 18:33N 36°53' W 076°21'0 0.0
2014-Jul-03 17:30N 36°53' W 076°21'0 0.0
2014-Jul-03 16:33N 36°53' W 076°21'7 7.3
2014-Jul-03 15:33N 36°60' W 076°18'1212.2
2014-Jul-03 14:33N 36°58' W 076°03'1312.9
2014-Jul-03 13:33N 36°51' W 075°49'15011.5
2014-Jul-03 00:32N 34°25' W 076°30'1211.9
2014-Jul-02 23:33N 34°33' W 076°40'9 7.9
2014-Jul-02 22:29N 34°42' W 076°41'0 0.0
2014-Jul-02 21:32N 34°42' W 076°41'0 0.0
2014-Jul-02 20:32N 34°42' W 076°41'0 0.0
2014-Jul-02 19:32N 34°42' W 076°41'0 0.0
2014-Jul-02 18:32N 34°42' W 076°41'0 0.0
2014-Jul-02 17:31N 34°42' W 076°41'0 0.0
2014-Jul-02 16:31N 34°42' W 076°41'0 0.0
2014-Jul-02 15:31N 34°42' W 076°41'0 0.0
2014-Jul-02 14:32N 34°42' W 076°41'0 0.0
2014-Jul-02 13:32N 34°42' W 076°41'0 0.0
2014-Jul-02 12:32N 34°42' W 076°41'0 0.0
2014-Jul-02 11:32N 34°42' W 076°41'  
Track history (hours):
 
Tides and Currents Weather Stations Pressure Air Temp Water Temp Dewpoint Dewpoint Depression Visibility Wind Speed Wind Dir Waves Ship Positions

Callsign NRPK (name unknown)

Last reported at 2014-Jul-12 11:30 UTC. Time now 2014-Jul-25 03:46 UTC.
Position N 35°48' W 075°20'.
Warning: this ship's position is 12 days out of date.

AWS

Date/timePositionNaut miles runAvg speedWind from/ knotsBaromVisibWave heightAir tempDewpointWater temp
2014-Jul-12 11:30N 35°48' W 075°20'6214.5
2014-Jul-12 07:13N 36°47' W 075°44'1015.3
2014-Jul-12 06:33N 36°53' W 075°54'1812.4
2014-Jul-12 05:05N 37°00' W 076°14'610.9
2014-Jul-12 04:33N 36°58' W 076°21'3 2.6
2014-Jul-12 03:18N 36°57' W 076°25'0 0.6
2014-Jul-12 02:33N 36°57' W 076°25'3 2.2
2014-Jul-12 01:17N 36°59' W 076°27'8 6.9
2014-Jul-12 00:06N 36°53' W 076°21'0 0.1
2014-Jul-11 21:04N 36°53' W 076°21'0 0.0
2014-Jul-11 17:28N 36°53' W 076°21'0 0.0
2014-Jul-11 15:10N 36°53' W 076°21'0 0.0
2014-Jul-11 14:31N 36°53' W 076°21'0 0.0
2014-Jul-11 12:19N 36°53' W 076°21'0 0.0
2014-Jul-11 11:28N 36°53' W 076°21'0 0.0
2014-Jul-11 10:22N 36°53' W 076°21'0 0.0
2014-Jul-11 06:05N 36°53' W 076°21'0 0.0
2014-Jul-11 05:22N 36°53' W 076°21'0 0.0
2014-Jul-11 04:31N 36°53' W 076°21'0 0.0
2014-Jul-11 01:31N 36°53' W 076°21'0 0.0
2014-Jul-11 00:07N 36°53' W 076°21'0 0.0
2014-Jul-10 19:32N 36°53' W 076°21'0 0.0
2014-Jul-10 06:22N 36°53' W 076°21'0 0.0
2014-Jul-10 05:10N 36°53' W 076°21'0 0.0
2014-Jul-10 01:26N 36°53' W 076°21'0 0.0
2014-Jul-09 23:23N 36°53' W 076°21'0 0.0
2014-Jul-09 22:25N 36°53' W 076°21'0 0.2
2014-Jul-09 20:33N 36°53' W 076°21'10 9.6
2014-Jul-09 19:33N 37°00' W 076°13'1312.4
2014-Jul-09 18:32N 36°57' W 075°58'7 0.3
2014-Jul-08 17:19N 36°57' W 075°49'911.9
2014-Jul-08 16:33N 36°59' W 075°60'1 0.8
2014-Jul-08 15:33N 36°59' W 076°00'0 0.0
2014-Jul-08 14:33N 36°59' W 076°00'2 1.6
2014-Jul-08 13:33N 36°58' W 075°59'0 0.0
2014-Jul-08 12:32N 36°58' W 075°59'5 4.3
2014-Jul-08 11:17N 36°57' W 076°06'0 0.0
2014-Jul-08 04:17N 36°57' W 076°06'0 0.0
2014-Jul-07 22:03N 36°57' W 076°06'1 2.5
2014-Jul-07 21:33N 36°58' W 076°07'1110.7
2014-Jul-07 20:33N 36°58' W 076°20'5 3.7
2014-Jul-07 19:13N 36°53' W 076°21'0 0.0
2014-Jul-07 16:24N 36°53' W 076°21'0 0.0
2014-Jul-07 14:33N 36°53' W 076°21'0 0.0
2014-Jul-07 13:03N 36°53' W 076°21'0 0.0
2014-Jul-07 12:33N 36°53' W 076°21'0 0.0
2014-Jul-07 11:33N 36°53' W 076°21'0 0.0
2014-Jul-07 10:33N 36°53' W 076°21'0 0.0
2014-Jul-07 09:31N 36°53' W 076°21'0 0.0
2014-Jul-07 08:22N 36°53' W 076°21'0 0.0
2014-Jul-07 07:10N 36°53' W 076°21'0 0.0
2014-Jul-07 06:28N 36°53' W 076°21'0 0.0
2014-Jul-07 05:28N 36°53' W 076°21'0 0.0
2014-Jul-07 04:31N 36°53' W 076°21'0 0.0
2014-Jul-07 03:31N 36°53' W 076°21'0 0.0
2014-Jul-07 02:31N 36°53' W 076°21'0 0.0
2014-Jul-07 01:25N 36°53' W 076°21'0 0.0
2014-Jul-07 00:33N 36°53' W 076°21'0 0.0
2014-Jul-06 23:25N 36°53' W 076°21'0 0.0
2014-Jul-06 22:31N 36°53' W 076°21'0 0.0
2014-Jul-06 21:28N 36°53' W 076°21'0 0.0
2014-Jul-06 20:31N 36°53' W 076°21'0 0.0
2014-Jul-06 19:28N 36°53' W 076°21'0 0.0
2014-Jul-06 18:31N 36°53' W 076°21'0 0.0
2014-Jul-06 17:31N 36°53' W 076°21'0 0.0
2014-Jul-06 16:33N 36°53' W 076°21'0 0.0
2014-Jul-06 15:21N 36°53' W 076°21'0 0.0
2014-Jul-06 14:31N 36°53' W 076°21'0 0.0
2014-Jul-06 13:25N 36°53' W 076°21'0 0.0
2014-Jul-06 12:25N 36°53' W 076°21'0 0.0
2014-Jul-06 11:25N 36°53' W 076°21'0 0.0
2014-Jul-06 10:31N 36°53' W 076°21'0 0.0
2014-Jul-06 09:28N 36°53' W 076°21'0 0.0
2014-Jul-06 08:24N 36°53' W 076°21'0 0.0
2014-Jul-06 07:27N 36°53' W 076°21'0 0.0
2014-Jul-06 06:32N 36°53' W 076°21'0 0.0
2014-Jul-06 05:30N 36°53' W 076°21'0 0.0
2014-Jul-06 04:27N 36°53' W 076°21'0 0.0
2014-Jul-06 03:33N 36°53' W 076°21'0 0.0
2014-Jul-06 02:33N 36°53' W 076°21'0 0.0
2014-Jul-06 01:33N 36°53' W 076°21'0 0.0
2014-Jul-06 00:32N 36°53' W 076°21'0 0.0
2014-Jul-05 23:32N 36°53' W 076°21'0 0.0
2014-Jul-05 22:30N 36°53' W 076°21'0 0.0
2014-Jul-05 21:30N 36°53' W 076°21'0 0.0
2014-Jul-05 20:33N 36°53' W 076°21'0 0.0
2014-Jul-05 19:33N 36°53' W 076°21'0 0.0
2014-Jul-05 18:27N 36°53' W 076°21'0 0.0
2014-Jul-05 17:31N 36°53' W 076°21'0 0.0
2014-Jul-05 16:30N 36°53' W 076°21'0 0.0
2014-Jul-05 15:33N 36°53' W 076°21'0 0.0
2014-Jul-05 14:33N 36°53' W 076°21'0 0.0
2014-Jul-05 13:33N 36°53' W 076°21'0 0.0
2014-Jul-05 12:30N 36°53' W 076°21'0 0.0
2014-Jul-05 11:27N 36°53' W 076°21'0 0.0
2014-Jul-05 10:33N 36°53' W 076°21'0 0.0
2014-Jul-05 09:30N 36°53' W 076°21'0 0.0
2014-Jul-05 08:33N 36°53' W 076°21'0 0.0
2014-Jul-05 07:33N 36°53' W 076°21'0 0.0
2014-Jul-05 06:30N 36°53' W 076°21'0 0.0
2014-Jul-05 05:30N 36°53' W 076°21'0 0.0
2014-Jul-05 04:33N 36°53' W 076°21'0 0.0
2014-Jul-05 03:32N 36°53' W 076°21'0 0.0
2014-Jul-05 02:34N 36°53' W 076°21'0 0.0
2014-Jul-05 01:33N 36°53' W 076°21'0 0.0
2014-Jul-05 00:30N 36°53' W 076°21'0 0.0
2014-Jul-04 23:31N 36°53' W 076°21'0 0.0
2014-Jul-04 22:33N 36°53' W 076°21'0 0.0
2014-Jul-04 21:33N 36°53' W 076°21'0 0.0
2014-Jul-04 20:33N 36°53' W 076°21'0 0.0
2014-Jul-04 19:30N 36°53' W 076°21'0 0.0
2014-Jul-04 18:30N 36°53' W 076°21'0 0.0
2014-Jul-04 17:24N 36°53' W 076°21'0 0.0
2014-Jul-04 16:27N 36°53' W 076°21'0 0.0
2014-Jul-04 15:33N 36°53' W 076°21'0 0.0
2014-Jul-04 14:27N 36°53' W 076°21'0 0.0
2014-Jul-04 13:27N 36°53' W 076°21'0 0.0
2014-Jul-04 12:33N 36°53' W 076°21'0 0.0
2014-Jul-04 11:33N 36°53' W 076°21'0 0.0
2014-Jul-04 10:33N 36°53' W 076°21'0 0.0
2014-Jul-04 09:33N 36°53' W 076°21'0 0.0
2014-Jul-04 08:18N 36°53' W 076°21'0 0.0
2014-Jul-04 07:33N 36°53' W 076°21'0 0.0
2014-Jul-04 06:32N 36°53' W 076°21'0 0.0
2014-Jul-04 05:33N 36°53' W 076°21'0 0.0
2014-Jul-04 04:25N 36°53' W 076°21'0 0.0
2014-Jul-04 03:33N 36°53' W 076°21'0 0.0
2014-Jul-04 02:27N 36°53' W 076°21'0 0.0
2014-Jul-04 01:33N 36°53' W 076°21'0 0.0
2014-Jul-04 00:30N 36°53' W 076°21'0 0.0
2014-Jul-03 23:30N 36°53' W 076°21'0 0.0
2014-Jul-03 22:24N 36°53' W 076°21'0 0.0
2014-Jul-03 21:33N 36°53' W 076°21'0 0.0
2014-Jul-03 20:21N 36°53' W 076°21'0 0.0
2014-Jul-03 19:24N 36°53' W 076°21'0 0.0
2014-Jul-03 18:33N 36°53' W 076°21'0 0.0
2014-Jul-03 17:30N 36°53' W 076°21'0 0.0
2014-Jul-03 16:33N 36°53' W 076°21'7 7.3
2014-Jul-03 15:33N 36°60' W 076°18'1212.2
2014-Jul-03 14:33N 36°58' W 076°03'1312.9
2014-Jul-03 13:33N 36°51' W 075°49'15011.5
2014-Jul-03 00:32N 34°25' W 076°30'1211.9
2014-Jul-02 23:33N 34°33' W 076°40'9 7.9
2014-Jul-02 22:29N 34°42' W 076°41'0 0.0
2014-Jul-02 21:32N 34°42' W 076°41'0 0.0
2014-Jul-02 20:32N 34°42' W 076°41'0 0.0
2014-Jul-02 19:32N 34°42' W 076°41'0 0.0
2014-Jul-02 18:32N 34°42' W 076°41'0 0.0
2014-Jul-02 17:31N 34°42' W 076°41'0 0.0
2014-Jul-02 16:31N 34°42' W 076°41'0 0.0
2014-Jul-02 15:31N 34°42' W 076°41'0 0.0
2014-Jul-02 14:32N 34°42' W 076°41'0 0.0
2014-Jul-02 13:32N 34°42' W 076°41'0 0.0
2014-Jul-02 12:32N 34°42' W 076°41'0 0.0
2014-Jul-02 11:32N 34°42' W 076°41'  

Dump ship's entire track history